Aviation Digital Data Service (ADDS)

Output produced by METARs form (0803 UTC 16 October 2018)
found at http://aviationweather.gov/metar/data/
 
KLFT 160520Z 1606/1706 01012KT P6SM VCSH SCT008 BKN035 
     TEMPO 1606/1610 -SHRA OVC008 
     FM161000 02012KT P6SM VCSH OVC008 
     FM161400 02012G20KT P6SM -SHRA OVC010